Terminal Aerodrome Forecast
Issued by NWS

Home | Current Version | Previous Version | Text Only | Print | Product List | Glossary On
Versions: 1 2 3 4 5 6 7 8 9 10 11 12
000
FTUS45 KTFX 052320
TAFHVR
TAF
KHVR 052320Z 0600/0624 32010KT P6SM BKN150
     FM060200 29010G20KT P6SM -SHRA SCT040 BKN070
      TEMPO 0602/0606 VRB20G30KT -TSRA BKN040CB
     FM060900 27015KT P6SM SCT090=

USA.gov is the U.S. government's official web portal to all federal, state and local government web resources and services.